Time;durP1;ratioP1;P1;durP2;ratioP2;P2;SDS_P1;SDS_P2;PMS_P1;PMS_P2;Temp;Humidity;BMP_temperature;BMP_pressure;BME280_temperature;BME280_humidity;BME280_pressure;Samples;Min_cycle;Max_cycle;Signal;HPM_P1;HPM_P2
2022/04/18 00:01:04;;;;;;;4.70;3.97;;;;;;;;;;4943662;29;20134;-66
2022/04/18 00:03:33;;;;;;;9.48;4.25;;;;;;;;;;4943012;29;20476;-68
2022/04/18 00:06:03;;;;;;;6.50;3.63;;;;;;;;;;4942942;29;20059;-67
2022/04/18 00:08:31;;;;;;;4.45;3.53;;;;;;;;;;4942485;29;20400;-67
2022/04/18 00:11:01;;;;;;;6.15;4.38;;;;;;;;;;4942973;29;20059;-67
2022/04/18 00:13:29;;;;;;;6.32;3.55;;;;;;;;;;4943039;29;20456;-67
2022/04/18 00:15:58;;;;;;;6.88;3.60;;;;;;;;;;4943206;29;20058;-67
2022/04/18 00:18:28;;;;;;;6.85;4.85;;;;;;;;;;4943342;29;20048;-66
2022/04/18 00:20:58;;;;;;;6.45;3.78;;;;;;;;;;4942860;29;20051;-67
2022/04/18 00:23:28;;;;;;;4.28;3.88;;;;;;;;;;4933300;29;20048;-67
2022/04/18 00:25:58;;;;;;;4.15;3.70;;;;;;;;;;4924743;29;20543;-68
2022/04/18 00:28:27;;;;;;;5.20;3.60;;;;;;;;;;4924381;29;20044;-66
2022/04/18 00:30:57;;;;;;;4.63;4.07;;;;;;;;;;4922967;29;20048;-66
2022/04/18 00:33:27;;;;;;;3.60;2.92;;;;;;;;;;4924491;29;20103;-66
2022/04/18 00:35:57;;;;;;;3.75;3.40;;;;;;;;;;4926393;29;20048;-67
2022/04/18 00:38:28;;;;;;;9.32;4.60;;;;;;;;;;4924182;29;20063;-66
2022/04/18 00:40:57;;;;;;;6.22;3.70;;;;;;;;;;4949511;29;20067;-66
2022/04/18 00:44:00;;;;;;;3.40;3.17;;;;;;;;;;4924426;29;20126;-66
2022/04/18 00:46:29;;;;;;;4.55;3.35;;;;;;;;;;4924475;29;20056;-66
2022/04/18 00:48:59;;;;;;;5.18;4.00;;;;;;;;;;4924862;29;20206;-68
2022/04/18 00:51:29;;;;;;;4.32;3.30;;;;;;;;;;4930573;29;20059;-67
2022/04/18 00:53:59;;;;;;;6.15;3.72;;;;;;;;;;4929567;29;20134;-67
2022/04/18 00:56:29;;;;;;;8.32;3.53;;;;;;;;;;4940940;29;20420;-68
2022/04/18 00:58:58;;;;;;;8.63;3.08;;;;;;;;;;4939563;29;20058;-68
2022/04/18 01:01:27;;;;;;;5.45;3.38;;;;;;;;;;4932766;29;20139;-67
2022/04/18 01:03:57;;;;;;;7.22;3.88;;;;;;;;;;4933939;29;20043;-68
2022/04/18 01:06:26;;;;;;;8.75;4.55;;;;;;;;;;4938373;29;20118;-68
2022/04/18 01:08:55;;;;;;;6.20;4.28;;;;;;;;;;4939447;29;20078;-67
2022/04/18 01:11:24;;;;;;;3.50;2.90;;;;;;;;;;4939656;29;20504;-67
2022/04/18 01:14:33;;;;;;;3.58;3.28;;;;;;;;;;4931430;29;20062;-67
2022/04/18 01:17:20;;;;;;;5.55;3.67;;;;;;;;;;4920009;29;20107;-67
2022/04/18 01:20:12;;;;;;;4.28;3.50;;;;;;;;;;4932977;29;20145;-67
2022/04/18 01:22:52;;;;;;;5.57;3.20;;;;;;;;;;4938297;29;20063;-68
2022/04/18 01:31:17;;;;;;;4.70;3.40;;;;;;;;;;4937580;29;20095;-67
2022/04/18 01:33:45;;;;;;;4.57;3.67;;;;;;;;;;4938044;29;20048;-64
2022/04/18 01:36:13;;;;;;;4.45;3.95;;;;;;;;;;4939043;29;20047;-65
2022/04/18 01:38:42;;;;;;;3.88;3.30;;;;;;;;;;4920587;29;20494;-64
2022/04/18 01:41:11;;;;;;;5.03;2.90;;;;;;;;;;4933334;29;20067;-65
2022/04/18 01:43:41;;;;;;;2.85;2.65;;;;;;;;;;4936900;29;20055;-65
2022/04/18 01:46:10;;;;;;;7.30;3.30;;;;;;;;;;4938012;29;20071;-65
2022/04/18 01:48:40;;;;;;;6.70;3.42;;;;;;;;;;4937184;29;20410;-65
2022/04/18 01:51:10;;;;;;;5.10;4.03;;;;;;;;;;4937745;29;20060;-66
2022/04/18 01:53:41;;;;;;;6.55;3.47;;;;;;;;;;4944488;29;20052;-66
2022/04/18 01:56:09;;;;;;;8.10;4.75;;;;;;;;;;4929341;29;20615;-66
2022/04/18 01:58:38;;;;;;;3.33;3.03;;;;;;;;;;4925428;29;20077;-64
2022/04/18 02:01:09;;;;;;;6.30;3.67;;;;;;;;;;4932437;29;20048;-65
2022/04/18 02:03:44;;;;;;;3.55;3.25;;;;;;;;;;4931894;29;20051;-65
2022/04/18 02:06:14;;;;;;;4.07;3.35;;;;;;;;;;4925001;29;20051;-66
2022/04/18 02:08:45;;;;;;;5.03;3.40;;;;;;;;;;4931601;29;20088;-66
2022/04/18 02:11:17;;;;;;;3.67;3.25;;;;;;;;;;4932723;29;20091;-66
2022/04/18 02:13:45;;;;;;;8.90;4.65;;;;;;;;;;4921341;29;20058;-67
2022/04/18 02:16:15;;;;;;;7.63;4.00;;;;;;;;;;4935134;29;20051;-67
2022/04/18 02:18:47;;;;;;;5.35;3.08;;;;;;;;;;4920656;29;20056;-67
2022/04/18 02:21:17;;;;;;;4.68;3.45;;;;;;;;;;4919678;29;20052;-67
2022/04/18 02:23:46;;;;;;;3.60;3.10;;;;;;;;;;4918921;29;20055;-66
2022/04/18 02:26:16;;;;;;;7.60;3.60;;;;;;;;;;4936414;29;20055;-67
2022/04/18 02:28:51;;;;;;;6.30;3.45;;;;;;;;;;4924670;29;20052;-67
2022/04/18 02:31:20;;;;;;;3.70;3.40;;;;;;;;;;4944409;29;20084;-66
2022/04/18 02:33:49;;;;;;;7.88;4.03;;;;;;;;;;4936240;29;20071;-67
2022/04/18 02:36:22;;;;;;;3.92;3.58;;;;;;;;;;4947055;29;20059;-67
2022/04/18 02:38:51;;;;;;;4.35;3.92;;;;;;;;;;4936348;29;20522;-67
2022/04/18 02:41:21;;;;;;;7.05;3.83;;;;;;;;;;4924542;29;20056;-67
2022/04/18 02:43:52;;;;;;;3.63;3.25;;;;;;;;;;4924379;29;20500;-66
2022/04/18 02:46:27;;;;;;;6.03;3.53;;;;;;;;;;4937661;29;20060;-66
2022/04/18 02:49:01;;;;;;;8.80;5.82;;;;;;;;;;4936135;29;20510;-66
2022/04/18 02:51:31;;;;;;;5.53;4.18;;;;;;;;;;4931564;29;20143;-66
2022/04/18 02:54:06;;;;;;;5.50;3.65;;;;;;;;;;4918018;29;20449;-66
2022/04/18 02:56:37;;;;;;;6.18;4.93;;;;;;;;;;4943886;29;20074;-66
2022/04/18 02:59:07;;;;;;;5.07;4.20;;;;;;;;;;4935747;29;20147;-66
2022/04/18 03:01:35;;;;;;;5.10;3.40;;;;;;;;;;4938066;29;20498;-66
2022/04/18 03:04:05;;;;;;;4.93;3.22;;;;;;;;;;4935467;29;20134;-66
2022/04/18 03:06:35;;;;;;;9.73;4.53;;;;;;;;;;4936178;29;20056;-65
2022/04/18 03:09:03;;;;;;;6.38;3.50;;;;;;;;;;4936091;29;20067;-66
2022/04/18 03:11:33;;;;;;;4.88;4.38;;;;;;;;;;4937470;29;20044;-66
2022/04/18 03:14:02;;;;;;;5.53;4.15;;;;;;;;;;4922074;29;20472;-66
2022/04/18 03:16:42;;;;;;;7.82;3.80;;;;;;;;;;4933965;29;20175;-66
2022/04/18 03:19:11;;;;;;;4.45;3.75;;;;;;;;;;4936131;29;20126;-66
2022/04/18 03:21:53;;;;;;;6.63;3.65;;;;;;;;;;4936289;29;20083;-66
2022/04/18 03:24:23;;;;;;;7.70;4.30;;;;;;;;;;4924377;29;20158;-66
2022/04/18 03:27:06;;;;;;;6.38;3.75;;;;;;;;;;4928138;29;20105;-66
2022/04/18 03:29:37;;;;;;;6.97;4.05;;;;;;;;;;4917890;29;20048;-66
2022/04/18 03:32:18;;;;;;;5.05;4.38;;;;;;;;;;4927928;29;20083;-66
2022/04/18 03:34:47;;;;;;;4.93;3.65;;;;;;;;;;4937237;29;20072;-65
2022/04/18 03:40:07;;;;;;;5.80;3.42;;;;;;;;;;4929508;29;20554;-66
2022/04/18 03:42:38;;;;;;;4.72;3.78;;;;;;;;;;4935667;29;20559;-66
2022/04/18 03:45:11;;;;;;;6.63;4.73;;;;;;;;;;4936021;29;20524;-66
2022/04/18 03:47:39;;;;;;;9.65;4.43;;;;;;;;;;4935038;29;20106;-66
2022/04/18 03:50:09;;;;;;;6.22;3.80;;;;;;;;;;4936603;29;20098;-66
2022/04/18 03:52:42;;;;;;;4.40;3.10;;;;;;;;;;4935454;29;20657;-66
2022/04/18 03:55:26;;;;;;;8.38;3.63;;;;;;;;;;4935362;29;20047;-66
2022/04/18 03:57:58;;;;;;;4.50;3.60;;;;;;;;;;4929797;29;20522;-66
2022/04/18 04:00:30;;;;;;;7.50;4.10;;;;;;;;;;4936928;29;20063;-66
2022/04/18 04:03:00;;;;;;;5.10;3.95;;;;;;;;;;4935575;29;20191;-66
2022/04/18 04:05:41;;;;;;;6.18;4.05;;;;;;;;;;4935597;29;20048;-66
2022/04/18 04:08:10;;;;;;;7.25;3.95;;;;;;;;;;4935490;29;20270;-65
2022/04/18 04:10:39;;;;;;;4.57;4.15;;;;;;;;;;4935655;29;20060;-65
2022/04/18 04:13:09;;;;;;;7.32;3.85;;;;;;;;;;4919860;29;20393;-65
2022/04/18 04:15:41;;;;;;;8.65;4.40;;;;;;;;;;4918267;29;20127;-66
2022/04/18 04:18:21;;;;;;;4.32;3.88;;;;;;;;;;4933019;29;20052;-65
2022/04/18 04:20:52;;;;;;;5.97;4.03;;;;;;;;;;4926808;29;20147;-65
2022/04/18 04:23:21;;;;;;;4.28;3.88;;;;;;;;;;4917362;29;20469;-66
2022/04/18 04:26:30;;;;;;;9.30;5.25;;;;;;;;;;4918209;29;20074;-65
2022/04/18 04:29:02;;;;;;;6.00;4.47;;;;;;;;;;4918840;29;20052;-66
2022/04/18 04:31:53;;;;;;;5.50;3.38;;;;;;;;;;4927559;29;20475;-66
2022/04/18 04:34:23;;;;;;;6.70;3.70;;;;;;;;;;4939287;29;20039;-66
2022/04/18 04:37:11;;;;;;;4.25;3.60;;;;;;;;;;4926985;29;20577;-66
2022/04/18 04:39:42;;;;;;;3.75;3.42;;;;;;;;;;4920652;29;20052;-66
2022/04/18 04:42:12;;;;;;;4.30;3.90;;;;;;;;;;4946110;29;20195;-65
2022/04/18 04:44:43;;;;;;;7.00;4.80;;;;;;;;;;4938745;29;20048;-66
2022/04/18 04:47:19;;;;;;;5.03;3.88;;;;;;;;;;4926695;29;20048;-67
2022/04/18 04:49:49;;;;;;;4.45;4.05;;;;;;;;;;4935462;29;20051;-66
2022/04/18 04:52:23;;;;;;;4.43;3.70;;;;;;;;;;4935609;29;20503;-66
2022/04/18 04:54:53;;;;;;;4.43;3.80;;;;;;;;;;4927158;29;20110;-66
2022/04/18 04:57:35;;;;;;;5.20;4.07;;;;;;;;;;4920532;29;20055;-66
2022/04/18 05:00:25;;;;;;;10.15;4.70;;;;;;;;;;4905481;29;20077;-67
2022/04/18 05:03:12;;;;;;;7.57;3.75;;;;;;;;;;4932770;29;20103;-66
2022/04/18 05:05:41;;;;;;;3.92;3.42;;;;;;;;;;4928488;29;20043;-68
2022/04/18 05:08:27;;;;;;;5.65;3.65;;;;;;;;;;4923974;29;20059;-65
2022/04/18 05:10:59;;;;;;;4.95;4.20;;;;;;;;;;4942200;28;20048;-68
2022/04/18 05:13:49;;;;;;;4.43;3.35;;;;;;;;;;4927361;29;20064;-67
2022/04/18 05:16:22;;;;;;;6.28;4.00;;;;;;;;;;4937406;29;20051;-67
2022/04/18 05:19:09;;;;;;;6.78;4.20;;;;;;;;;;4934189;29;20135;-67
2022/04/18 05:21:39;;;;;;;6.90;4.30;;;;;;;;;;4921831;29;20048;-67
2022/04/18 05:24:16;;;;;;;4.85;3.80;;;;;;;;;;4923914;29;20055;-67
2022/04/18 05:26:46;;;;;;;6.95;4.78;;;;;;;;;;4938467;29;20052;-67
2022/04/18 05:29:17;;;;;;;6.38;4.28;;;;;;;;;;4937846;29;20047;-68
2022/04/18 05:31:49;;;;;;;4.00;3.70;;;;;;;;;;4944360;28;20056;-68
2022/04/18 05:34:20;;;;;;;4.25;3.78;;;;;;;;;;4920071;29;20143;-68
2022/04/18 05:36:59;;;;;;;4.82;4.40;;;;;;;;;;4948241;29;20146;-67
2022/04/18 05:39:52;;;;;;;4.28;3.90;;;;;;;;;;4939216;29;20106;-68
2022/04/18 05:42:23;;;;;;;5.63;4.18;;;;;;;;;;4937756;29;20471;-67
2022/04/18 05:44:57;;;;;;;4.78;4.20;;;;;;;;;;4938154;28;20461;-67
2022/04/18 05:47:45;;;;;;;4.57;4.18;;;;;;;;;;4920491;29;20064;-66
2022/04/18 05:50:15;;;;;;;10.75;4.45;;;;;;;;;;4947618;29;20662;-68
2022/04/18 05:53:04;;;;;;;6.60;4.63;;;;;;;;;;4933756;29;20055;-64
2022/04/18 05:56:03;;;;;;;5.00;3.95;;;;;;;;;;4933820;29;20110;-66
2022/04/18 05:59:05;;;;;;;4.47;4.05;;;;;;;;;;4936107;29;20102;-66
2022/04/18 06:01:43;;;;;;;4.65;4.10;;;;;;;;;;4935426;29;20087;-69
2022/04/18 06:04:39;;;;;;;5.03;4.00;;;;;;;;;;4936278;29;20071;-68
2022/04/18 06:07:21;;;;;;;4.35;4.03;;;;;;;;;;4937673;29;20055;-68
2022/04/18 06:10:06;;;;;;;6.30;4.72;;;;;;;;;;4932583;29;20477;-68
2022/04/18 06:12:36;;;;;;;7.32;3.92;;;;;;;;;;4933755;29;20052;-68
2022/04/18 06:15:06;;;;;;;6.18;4.40;;;;;;;;;;4935081;29;20085;-68
2022/04/18 06:17:36;;;;;;;4.65;4.07;;;;;;;;;;4934650;29;20043;-68
2022/04/18 06:20:06;;;;;;;4.68;4.22;;;;;;;;;;4934286;29;20050;-68
2022/04/18 06:22:35;;;;;;;5.05;4.53;;;;;;;;;;4933757;29;20084;-68
2022/04/18 06:25:07;;;;;;;5.13;4.15;;;;;;;;;;4933727;29;20488;-67
2022/04/18 06:27:37;;;;;;;5.57;4.05;;;;;;;;;;4933889;29;20113;-68
2022/04/18 06:30:06;;;;;;;5.07;4.18;;;;;;;;;;4934015;29;20051;-68
2022/04/18 06:32:54;;;;;;;5.65;4.80;;;;;;;;;;4934595;29;20052;-68
2022/04/18 06:35:23;;;;;;;8.77;4.78;;;;;;;;;;4935270;29;20066;-68
2022/04/18 06:37:54;;;;;;;3.53;3.17;;;;;;;;;;4935470;29;20517;-67
2022/04/18 06:40:45;;;;;;;7.15;3.60;;;;;;;;;;4936675;29;20063;-69
2022/04/18 06:43:18;;;;;;;6.93;3.83;;;;;;;;;;4935430;29;20048;-68
2022/04/18 06:45:51;;;;;;;4.40;3.50;;;;;;;;;;4935838;29;20054;-68
2022/04/18 06:48:20;;;;;;;6.82;3.70;;;;;;;;;;4935423;29;20635;-68
2022/04/18 06:51:08;;;;;;;5.80;3.97;;;;;;;;;;4936557;29;20131;-68
2022/04/18 06:53:57;;;;;;;4.80;4.03;;;;;;;;;;4944902;29;20060;-68
2022/04/18 06:57:00;;;;;;;5.72;3.42;;;;;;;;;;4931094;29;20123;-68
2022/04/18 06:59:46;;;;;;;;;;;;;;;;;;4935920;29;20090;-66
2022/04/18 07:02:22;;;;;;;6.00;3.17;;;;;;;;;;4935708;29;19929;-68
2022/04/18 07:04:53;;;;;;;7.22;3.85;;;;;;;;;;4935210;29;20221;-68
2022/04/18 07:07:23;;;;;;;4.38;3.40;;;;;;;;;;4935985;29;20094;-67
2022/04/18 07:09:52;;;;;;;3.53;2.72;;;;;;;;;;4936354;29;20135;-67
2022/04/18 07:12:22;;;;;;;3.10;2.50;;;;;;;;;;4935265;29;20059;-67
2022/04/18 07:14:55;;;;;;;2.92;2.63;;;;;;;;;;4936673;29;20052;-68
2022/04/18 07:17:23;;;;;;;4.93;2.60;;;;;;;;;;4934939;29;20059;-67
2022/04/18 07:19:55;;;;;;;5.95;2.90;;;;;;;;;;4935366;29;20059;-67
2022/04/18 07:22:26;;;;;;;2.67;2.47;;;;;;;;;;4935093;29;20522;-67
2022/04/18 07:24:59;;;;;;;2.72;2.53;;;;;;;;;;4935361;29;20047;-68
2022/04/18 07:27:32;;;;;;;4.82;2.75;;;;;;;;;;4934637;29;20056;-67
2022/04/18 07:30:04;;;;;;;4.03;2.42;;;;;;;;;;4935115;29;20055;-67
2022/04/18 07:32:41;;;;;;;2.78;2.50;;;;;;;;;;4934721;29;20051;-67
2022/04/18 07:35:13;;;;;;;3.85;2.53;;;;;;;;;;4935232;29;20055;-67
2022/04/18 07:40:45;;;;;;;3.72;2.60;;;;;;;;;;4935242;29;20047;-68
2022/04/18 07:43:16;;;;;;;3.58;2.47;;;;;;;;;;4935008;29;20056;-68
2022/04/18 07:45:47;;;;;;;4.18;2.92;;;;;;;;;;4935983;29;20055;-67
2022/04/18 07:48:17;;;;;;;3.92;3.45;;;;;;;;;;4934690;29;20612;-68
2022/04/18 07:53:32;;;;;;;7.43;2.30;;;;;;;;;;4934759;29;20099;-67
2022/04/18 07:56:01;;;;;;;3.03;2.10;;;;;;;;;;4934953;29;20135;-67
2022/04/18 07:58:33;;;;;;;4.35;2.60;;;;;;;;;;4935144;29;20427;-68
2022/04/18 08:01:06;;;;;;;6.95;2.10;;;;;;;;;;4934271;29;20106;-67
2022/04/18 08:03:35;;;;;;;4.78;2.50;;;;;;;;;;4934714;29;20056;-67
2022/04/18 08:06:06;;;;;;;3.58;2.00;;;;;;;;;;4935275;29;20083;-67
2022/04/18 08:08:43;;;;;;;2.97;2.22;;;;;;;;;;4938785;29;20137;-67
2022/04/18 08:11:14;;;;;;;3.08;2.17;;;;;;;;;;4938275;29;20048;-67
2022/04/18 08:13:46;;;;;;;5.90;2.93;;;;;;;;;;4938542;29;20047;-67
2022/04/18 08:16:51;;;;;;;5.45;3.97;;;;;;;;;;4956234;29;20067;-68
2022/04/18 08:19:43;;;;;;;4.55;3.10;;;;;;;;;;4938029;29;20099;-68
2022/04/18 08:22:13;;;;;;;2.50;2.30;;;;;;;;;;4937748;29;20055;-67
2022/04/18 08:25:01;;;;;;;3.55;2.70;;;;;;;;;;4939693;29;20062;-68
2022/04/18 08:28:02;;;;;;;2.80;2.25;;;;;;;;;;4939032;29;20067;-68
2022/04/18 08:30:35;;;;;;;3.37;2.50;;;;;;;;;;4937952;29;20061;-68
2022/04/18 08:33:29;;;;;;;4.40;2.25;;;;;;;;;;4937795;29;20048;-68
2022/04/18 08:35:59;;;;;;;4.40;2.72;;;;;;;;;;4938242;29;20103;-68
2022/04/18 08:38:28;;;;;;;3.70;2.40;;;;;;;;;;4937561;29;20066;-67
2022/04/18 08:41:21;;;;;;;8.85;2.53;;;;;;;;;;4941458;29;20063;-68
2022/04/18 08:43:50;;;;;;;5.15;2.65;;;;;;;;;;4938050;29;20111;-68
2022/04/18 08:46:18;;;;;;;6.43;3.47;;;;;;;;;;4922354;29;20075;-68
2022/04/18 08:54:26;;;;;;;6.07;2.70;;;;;;;;;;4937518;29;20047;-68
2022/04/18 08:56:56;;;;;;;4.85;3.95;;;;;;;;;;4937687;29;20086;-66
2022/04/18 08:59:28;;;;;;;4.20;3.72;;;;;;;;;;4937539;29;20056;-67
2022/04/18 09:01:59;;;;;;;2.55;2.35;;;;;;;;;;4937570;29;20439;-67
2022/04/18 09:04:54;;;;;;;6.28;2.92;;;;;;;;;;4937676;29;20512;-67
2022/04/18 09:07:23;;;;;;;3.78;3.45;;;;;;;;;;4936683;29;20052;-66
2022/04/18 09:09:58;;;;;;;4.55;3.78;;;;;;;;;;4936577;29;20043;-67
2022/04/18 09:12:29;;;;;;;3.95;3.53;;;;;;;;;;4937664;29;20411;-66
2022/04/18 09:15:46;;;;;;;4.57;2.70;;;;;;;;;;4933341;29;20058;-66
2022/04/18 09:18:19;;;;;;;5.53;4.15;;;;;;;;;;4935978;29;20143;-68
2022/04/18 09:21:17;;;;;;;8.45;4.15;;;;;;;;;;4936530;29;20495;-67
2022/04/18 09:23:49;;;;;;;3.97;3.40;;;;;;;;;;4936886;29;20043;-66
2022/04/18 09:26:39;;;;;;;4.05;3.10;;;;;;;;;;4936199;29;20411;-67
2022/04/18 09:29:09;;;;;;;4.40;2.90;;;;;;;;;;4936713;29;20058;-68
2022/04/18 09:31:41;;;;;;;3.38;3.08;;;;;;;;;;4934501;29;20054;-66
2022/04/18 09:34:35;;;;;;;6.38;3.92;;;;;;;;;;4934868;29;20098;-67
2022/04/18 09:37:19;;;;;;;4.13;3.40;;;;;;;;;;4936599;29;20496;-66
2022/04/18 09:39:53;;;;;;;7.18;3.40;;;;;;;;;;4935113;29;20123;-67
2022/04/18 09:42:26;;;;;;;4.50;3.50;;;;;;;;;;4931827;29;20048;-67
2022/04/18 09:45:01;;;;;;;5.88;3.33;;;;;;;;;;4932340;29;20498;-67
2022/04/18 09:47:35;;;;;;;4.28;3.80;;;;;;;;;;4936337;29;20080;-67
2022/04/18 09:53:28;;;;;;;6.07;3.90;;;;;;;;;;4932168;29;20043;-66
2022/04/18 09:55:58;;;;;;;4.00;3.35;;;;;;;;;;4933599;29;20043;-67
2022/04/18 09:58:26;;;;;;;4.18;3.42;;;;;;;;;;4936984;29;20046;-67
2022/04/18 10:01:19;;;;;;;4.20;3.53;;;;;;;;;;4936841;29;20521;-67
2022/04/18 10:03:52;;;;;;;4.50;3.72;;;;;;;;;;4936038;29;20055;-67
2022/04/18 10:06:25;;;;;;;3.58;3.05;;;;;;;;;;4935508;29;20134;-67
2022/04/18 10:08:54;;;;;;;5.30;4.13;;;;;;;;;;4937023;28;20050;-66
2022/04/18 10:11:23;;;;;;;4.28;3.50;;;;;;;;;;4936606;29;20044;-67
2022/04/18 10:13:52;;;;;;;5.65;4.88;;;;;;;;;;4937346;29;20052;-64
2022/04/18 10:16:22;;;;;;;3.80;3.50;;;;;;;;;;4934377;29;20126;-66
2022/04/18 10:18:56;;;;;;;4.40;4.00;;;;;;;;;;4937093;29;20415;-67
2022/04/18 10:21:32;;;;;;;6.43;4.28;;;;;;;;;;4932281;29;20055;-66
2022/04/18 10:24:35;;;;;;;3.92;3.63;;;;;;;;;;4925847;29;20055;-66
2022/04/18 10:27:10;;;;;;;6.35;4.25;;;;;;;;;;4936472;29;20048;-66
2022/04/18 10:29:44;;;;;;;5.32;3.42;;;;;;;;;;4933215;29;20080;-65
2022/04/18 10:32:18;;;;;;;8.27;3.83;;;;;;;;;;4935047;29;20062;-66
2022/04/18 10:34:52;;;;;;;43.70;39.38;;;;;;;;;;4935622;29;20055;-66
2022/04/18 10:37:24;;;;;;;48.20;43.22;;;;;;;;;;4934218;29;20039;-65
2022/04/18 10:39:58;;;;;;;27.23;24.30;;;;;;;;;;4936406;29;20071;-66
2022/04/18 10:42:32;;;;;;;4.43;4.03;;;;;;;;;;4936178;29;20040;-65
2022/04/18 10:45:19;;;;;;;5.90;3.60;;;;;;;;;;4934227;29;20067;-66
2022/04/18 10:47:58;;;;;;;16.35;14.65;;;;;;;;;;4935441;29;20491;-66
2022/04/18 10:50:34;;;;;;;15.13;9.80;;;;;;;;;;4934143;29;20043;-66
2022/04/18 10:53:22;;;;;;;99.75;82.22;;;;;;;;;;4936303;29;20091;-66
2022/04/18 10:55:55;;;;;;;7.32;5.53;;;;;;;;;;4933274;29;20448;-66
2022/04/18 10:58:29;;;;;;;7.55;4.32;;;;;;;;;;4936172;29;20388;-66
2022/04/18 11:00:58;;;;;;;;;;;;;;;;;;4934988;29;20047;-66
2022/04/18 11:03:43;;;;;;;32.60;29.25;;;;;;;;;;4936319;29;19945;-67
2022/04/18 11:06:32;;;;;;;128.68;116.55;;;;;;;;;;4935319;29;20043;-66
2022/04/18 11:09:07;;;;;;;12.30;9.68;;;;;;;;;;4935581;29;20062;-67
2022/04/18 11:11:44;;;;;;;9.52;5.78;;;;;;;;;;4935865;29;20079;-67
2022/04/18 11:14:15;;;;;;;5.05;3.35;;;;;;;;;;4935877;29;20056;-65
2022/04/18 11:16:43;;;;;;;12.35;10.10;;;;;;;;;;4936179;29;20090;-65
2022/04/18 11:19:15;;;;;;;4.82;4.32;;;;;;;;;;4935896;29;20396;-66
2022/04/18 11:24:46;;;;;;;9.18;7.25;;;;;;;;;;4933334;29;20051;-65
2022/04/18 11:27:14;;;;;;;57.83;50.92;;;;;;;;;;4934589;29;20067;-65
2022/04/18 11:29:45;;;;;;;29.52;26.45;;;;;;;;;;4933274;29;20044;-66
2022/04/18 11:32:17;;;;;;;7.90;7.05;;;;;;;;;;4935548;29;20059;-64
2022/04/18 11:34:50;;;;;;;5.35;4.85;;;;;;;;;;4933261;29;20131;-65
2022/04/18 11:37:22;;;;;;;6.13;4.35;;;;;;;;;;4935530;29;20054;-65
2022/04/18 11:39:55;;;;;;;6.80;3.80;;;;;;;;;;4935225;29;20059;-65
2022/04/18 11:42:26;;;;;;;7.13;3.78;;;;;;;;;;4932804;29;20052;-66
2022/04/18 11:44:57;;;;;;;5.10;3.58;;;;;;;;;;4935584;29;20112;-66
2022/04/18 11:47:32;;;;;;;8.43;4.63;;;;;;;;;;4933836;29;20131;-66
2022/04/18 11:50:02;;;;;;;3.80;2.92;;;;;;;;;;4935543;29;20071;-66
2022/04/18 11:52:39;;;;;;;4.95;3.70;;;;;;;;;;4934477;29;20051;-66
2022/04/18 11:55:14;;;;;;;6.30;3.72;;;;;;;;;;4933229;29;20063;-66
2022/04/18 11:57:50;;;;;;;7.22;3.78;;;;;;;;;;4932699;29;20055;-66
2022/04/18 12:08:44;;;;;;;6.50;4.05;;;;;;;;;;4933344;29;20054;-66
2022/04/18 12:11:13;;;;;;;6.10;3.80;;;;;;;;;;4935160;29;20083;-67
2022/04/18 12:13:46;;;;;;;5.55;3.95;;;;;;;;;;4935235;29;20059;-66
2022/04/18 12:16:22;;;;;;;6.13;3.67;;;;;;;;;;4934142;29;20407;-68
2022/04/18 12:18:55;;;;;;;6.07;3.58;;;;;;;;;;4935045;29;20055;-66
2022/04/18 12:21:25;;;;;;;4.70;3.38;;;;;;;;;;4934675;29;20059;-67
2022/04/18 12:23:57;;;;;;;9.00;4.07;;;;;;;;;;4935224;29;20047;-67
2022/04/18 12:26:30;;;;;;;5.50;3.80;;;;;;;;;;4932609;29;20100;-67
2022/04/18 12:29:07;;;;;;;6.45;4.00;;;;;;;;;;4935208;29;20511;-66
2022/04/18 12:31:44;;;;;;;5.45;3.67;;;;;;;;;;4935110;29;20123;-66
2022/04/18 12:34:20;;;;;;;7.25;5.45;;;;;;;;;;4933760;29;20055;-65
2022/04/18 12:37:03;;;;;;;5.60;3.70;;;;;;;;;;4933803;29;20048;-65
2022/04/18 12:39:32;;;;;;;;;;;;;;;;;;4933629;29;20071;-65
2022/04/18 12:42:02;;;;;;;8.35;4.25;;;;;;;;;;4933929;29;19922;-65
2022/04/18 12:44:30;;;;;;;9.15;3.90;;;;;;;;;;4933789;29;20086;-65
2022/04/18 12:47:02;;;;;;;4.13;3.72;;;;;;;;;;4934188;29;20051;-66
2022/04/18 12:49:31;;;;;;;6.38;4.55;;;;;;;;;;4933815;29;20055;-65
2022/04/18 12:52:06;;;;;;;8.30;6.07;;;;;;;;;;4935662;29;20048;-65
2022/04/18 12:54:46;;;;;;;4.07;3.75;;;;;;;;;;4938287;29;20080;-65
2022/04/18 12:57:21;;;;;;;4.88;4.30;;;;;;;;;;4939188;29;20506;-66
2022/04/18 12:59:52;;;;;;;6.03;4.50;;;;;;;;;;4938496;29;20055;-65
2022/04/18 13:02:21;;;;;;;4.90;4.25;;;;;;;;;;4938712;29;20048;-66
2022/04/18 13:04:59;;;;;;;5.25;4.32;;;;;;;;;;4938249;29;20047;-65
2022/04/18 13:07:29;;;;;;;6.90;4.32;;;;;;;;;;4939083;29;20193;-65
2022/04/18 13:10:06;;;;;;;6.18;5.57;;;;;;;;;;4938394;29;20047;-65
2022/04/18 13:12:34;;;;;;;5.72;4.47;;;;;;;;;;4938589;29;20126;-65
2022/04/18 13:15:07;;;;;;;5.50;4.35;;;;;;;;;;4938391;29;20111;-65
2022/04/18 13:18:17;;;;;;;12.52;5.05;;;;;;;;;;4938446;29;20135;-65
2022/04/18 13:20:48;;;;;;;6.15;5.32;;;;;;;;;;4937890;29;20060;-65
2022/04/18 13:23:16;;;;;;;6.28;5.32;;;;;;;;;;4938576;29;20056;-65
2022/04/18 13:25:45;;;;;;;4.85;4.45;;;;;;;;;;4937890;29;20056;-65
2022/04/18 13:28:15;;;;;;;7.50;4.70;;;;;;;;;;4938253;29;20460;-66
2022/04/18 13:30:47;;;;;;;6.35;4.60;;;;;;;;;;4938550;29;20495;-66
2022/04/18 13:33:17;;;;;;;4.95;4.45;;;;;;;;;;4937984;29;20091;-65
2022/04/18 13:38:34;;;;;;;6.20;4.60;;;;;;;;;;4938183;29;20044;-65
2022/04/18 13:41:04;;;;;;;6.25;4.53;;;;;;;;;;4937985;29;20047;-65
2022/04/18 13:43:33;;;;;;;6.38;5.38;;;;;;;;;;4953516;29;20059;-65
2022/04/18 13:46:03;;;;;;;6.85;4.10;;;;;;;;;;4956942;28;20055;-65
2022/04/18 13:48:34;;;;;;;8.38;4.82;;;;;;;;;;4956964;29;20055;-65
2022/04/18 13:51:04;;;;;;;5.45;4.63;;;;;;;;;;4957207;29;20514;-65
2022/04/18 13:53:33;;;;;;;6.50;4.90;;;;;;;;;;4957612;28;20122;-65
2022/04/18 13:56:04;;;;;;;6.15;4.30;;;;;;;;;;4956829;29;20062;-65
2022/04/18 13:58:33;;;;;;;6.38;4.60;;;;;;;;;;4957069;28;20098;-65
2022/04/18 14:01:03;;;;;;;7.55;4.57;;;;;;;;;;4956713;29;20114;-65
2022/04/18 14:03:31;;;;;;;5.80;4.20;;;;;;;;;;4956481;28;20406;-65
2022/04/18 14:06:04;;;;;;;10.77;5.63;;;;;;;;;;4956782;28;20051;-65
2022/04/18 14:08:40;;;;;;;7.75;4.15;;;;;;;;;;4957567;28;20085;-66
2022/04/18 14:11:10;;;;;;;6.43;4.50;;;;;;;;;;4956285;28;20089;-65
2022/04/18 14:13:39;;;;;;;6.05;5.05;;;;;;;;;;4956573;28;20495;-65
2022/04/18 14:21:45;;;;;;;6.80;4.53;;;;;;;;;;4956481;28;20101;-65
2022/04/18 14:24:15;;;;;;;5.15;4.47;;;;;;;;;;4956251;29;20058;-64
2022/04/18 14:26:46;;;;;;;6.20;4.05;;;;;;;;;;4956136;29;20134;-64
2022/04/18 14:29:16;;;;;;;5.80;4.85;;;;;;;;;;4956438;28;20138;-64
2022/04/18 14:31:44;;;;;;;6.22;4.68;;;;;;;;;;4956392;28;20506;-64
2022/04/18 14:34:13;;;;;;;6.82;4.70;;;;;;;;;;4956259;29;20047;-65
2022/04/18 14:36:41;;;;;;;6.45;5.22;;;;;;;;;;4956026;28;20406;-65
2022/04/18 14:39:09;;;;;;;7.10;5.18;;;;;;;;;;4955680;29;20106;-65
2022/04/18 14:41:38;;;;;;;6.28;5.20;;;;;;;;;;4956150;28;20072;-65
2022/04/18 14:44:07;;;;;;;5.70;4.97;;;;;;;;;;4955900;29;20047;-65
2022/04/18 14:46:37;;;;;;;6.13;5.35;;;;;;;;;;4956199;28;20055;-65
2022/04/18 14:49:07;;;;;;;11.13;5.10;;;;;;;;;;4955978;29;20075;-65
2022/04/18 14:51:36;;;;;;;9.93;5.38;;;;;;;;;;4955781;29;20071;-65
2022/04/18 14:54:05;;;;;;;9.15;6.40;;;;;;;;;;4955799;29;20055;-65
2022/04/18 14:56:33;;;;;;;5.63;4.95;;;;;;;;;;4956084;28;20414;-65
2022/04/18 14:59:04;;;;;;;7.60;4.60;;;;;;;;;;4956133;28;20058;-65
2022/04/18 15:01:32;;;;;;;7.45;4.63;;;;;;;;;;4955788;28;20050;-65
2022/04/18 15:04:01;;;;;;;7.15;4.57;;;;;;;;;;4955797;29;20062;-65
2022/04/18 15:06:31;;;;;;;5.60;4.53;;;;;;;;;;4954292;29;20055;-65
2022/04/18 15:09:01;;;;;;;7.32;4.72;;;;;;;;;;4955815;29;20190;-65
2022/04/18 15:11:30;;;;;;;6.60;4.70;;;;;;;;;;4955637;28;20058;-65
2022/04/18 15:14:01;;;;;;;7.68;4.70;;;;;;;;;;4955584;28;20048;-65
2022/04/18 15:16:30;;;;;;;5.07;4.13;;;;;;;;;;4955021;28;20061;-65
2022/04/18 15:18:58;;;;;;;7.15;4.07;;;;;;;;;;4955661;29;20043;-65
2022/04/18 15:21:27;;;;;;;7.13;5.32;;;;;;;;;;4955146;29;20499;-65
2022/04/18 15:24:02;;;;;;;;;;;;;;;;;;4956494;29;20061;-65
2022/04/18 15:26:32;;;;;;;9.38;4.72;;;;;;;;;;4954872;29;19929;-64
2022/04/18 15:29:01;;;;;;;5.63;4.70;;;;;;;;;;4955151;29;20074;-64
2022/04/18 15:34:18;;;;;;;5.85;4.85;;;;;;;;;;4954730;28;20047;-66
2022/04/18 15:36:47;;;;;;;6.00;5.13;;;;;;;;;;4954754;29;20507;-65
2022/04/18 15:39:17;;;;;;;5.70;4.57;;;;;;;;;;4954512;29;20423;-65
2022/04/18 15:41:53;;;;;;;6.10;5.28;;;;;;;;;;4954753;29;20468;-65
2022/04/18 15:44:23;;;;;;;6.90;4.75;;;;;;;;;;4954561;29;20039;-65
2022/04/18 15:46:52;;;;;;;5.10;4.60;;;;;;;;;;4955072;29;20055;-65
2022/04/18 15:49:21;;;;;;;8.55;5.10;;;;;;;;;;4955393;29;20043;-66
2022/04/18 15:51:49;;;;;;;10.98;4.38;;;;;;;;;;4955045;28;20511;-65
2022/04/18 15:54:22;;;;;;;6.88;4.32;;;;;;;;;;4952755;28;20059;-65
2022/04/18 15:56:52;;;;;;;6.35;5.10;;;;;;;;;;4934823;29;20052;-65
2022/04/18 15:59:22;;;;;;;6.75;5.63;;;;;;;;;;4923604;29;20048;-65
2022/04/18 16:01:51;;;;;;;8.98;4.40;;;;;;;;;;4935576;29;20059;-65
2022/04/18 16:04:20;;;;;;;6.78;4.80;;;;;;;;;;4936266;29;20059;-66
2022/04/18 16:06:51;;;;;;;7.28;4.80;;;;;;;;;;4935388;29;20127;-65
2022/04/18 16:09:19;;;;;;;5.80;4.82;;;;;;;;;;4935641;29;20515;-65